Time;durP1;ratioP1;P1;durP2;ratioP2;P2;SDS_P1;SDS_P2;PMS_P1;PMS_P2;Temp;Humidity;BMP_temperature;BMP_pressure;BME280_temperature;BME280_humidity;BME280_pressure;Samples;Min_cycle;Max_cycle;Signal;HPM_P1;HPM_P2
2021/03/17 00:02:12;;;;;;;5.63;4.70;;;;;;;;;;5010166;28;20211;-72
2021/03/17 00:04:38;;;;;;;5.33;4.83;;;;;;;;;;5018407;28;20187;-72
2021/03/17 00:07:04;;;;;;;5.10;4.60;;;;;;;;;;5012052;28;20306;-72
2021/03/17 00:09:30;;;;;;;7.43;5.73;;;;;;;;;;5011805;28;20229;-72
2021/03/17 00:11:56;;;;;;;6.17;5.57;;;;;;;;;;4991698;28;20215;-72
2021/03/17 00:14:22;;;;;;;10.07;5.57;;;;;;;;;;5007170;28;20219;-73
2021/03/17 00:16:48;;;;;;;6.33;5.70;;;;;;;;;;5010558;28;20203;-72
2021/03/17 00:19:14;;;;;;;6.17;5.57;;;;;;;;;;4997825;28;20225;-71
2021/03/17 00:21:40;;;;;;;6.67;5.87;;;;;;;;;;5016634;28;20205;-72
2021/03/17 00:24:07;;;;;;;6.43;5.83;;;;;;;;;;5009917;28;20190;-72
2021/03/17 00:26:33;;;;;;;5.70;5.20;;;;;;;;;;5015415;28;20660;-72
2021/03/17 00:28:59;;;;;;;6.80;5.57;;;;;;;;;;5013666;28;20193;-72
2021/03/17 00:31:25;;;;;;;7.40;6.20;;;;;;;;;;5012325;28;20683;-71
2021/03/17 00:33:51;;;;;;;6.53;5.50;;;;;;;;;;4992135;28;20238;-72
2021/03/17 00:36:17;;;;;;;6.50;5.67;;;;;;;;;;4993725;28;20271;-72
2021/03/17 00:38:43;;;;;;;6.90;5.73;;;;;;;;;;5010948;28;20196;-71
2021/03/17 00:41:10;;;;;;;7.73;5.77;;;;;;;;;;5010868;28;20206;-72
2021/03/17 00:43:36;;;;;;;6.03;5.53;;;;;;;;;;5015268;28;20182;-72
2021/03/17 00:46:02;;;;;;;7.40;5.73;;;;;;;;;;5012366;28;20724;-72
2021/03/17 00:48:28;;;;;;;6.57;5.93;;;;;;;;;;5012538;28;20190;-72
2021/03/17 00:50:54;;;;;;;5.80;5.30;;;;;;;;;;5007126;28;20212;-73
2021/03/17 00:53:20;;;;;;;6.03;5.43;;;;;;;;;;5008900;28;20183;-72
2021/03/17 00:55:46;;;;;;;6.43;5.87;;;;;;;;;;4994561;28;20190;-72
2021/03/17 00:58:12;;;;;;;7.37;6.37;;;;;;;;;;4993905;28;20239;-72
2021/03/17 01:00:38;;;;;;;6.80;5.80;;;;;;;;;;5006702;28;20232;-71
2021/03/17 01:03:04;;;;;;;6.10;5.50;;;;;;;;;;5011115;28;20194;-71
2021/03/17 01:05:30;;;;;;;5.97;5.37;;;;;;;;;;5011983;28;20736;-71
2021/03/17 01:07:57;;;;;;;6.97;5.40;;;;;;;;;;5015071;28;20187;-71
2021/03/17 01:10:34;;;;;;;6.50;5.90;;;;;;;;;;5010469;28;20215;-72
2021/03/17 01:13:00;;;;;;;6.80;6.20;;;;;;;;;;5007232;28;20811;-71
2021/03/17 01:15:26;;;;;;;5.90;5.30;;;;;;;;;;5009537;28;20272;-71
2021/03/17 01:17:53;;;;;;;6.53;5.83;;;;;;;;;;5010915;28;20193;-71
2021/03/17 01:20:21;;;;;;;6.30;5.50;;;;;;;;;;5012451;28;20184;-72
2021/03/17 01:22:47;;;;;;;5.97;5.37;;;;;;;;;;5011410;28;20208;-72
2021/03/17 01:25:15;;;;;;;6.17;5.60;;;;;;;;;;5009890;28;20209;-72
2021/03/17 01:27:40;;;;;;;6.47;5.30;;;;;;;;;;5017111;28;20226;-71
2021/03/17 01:30:07;;;;;;;5.83;5.33;;;;;;;;;;4993994;28;20215;-71
2021/03/17 01:32:34;;;;;;;7.77;5.80;;;;;;;;;;5007923;28;20305;-71
2021/03/17 01:35:00;;;;;;;5.93;5.40;;;;;;;;;;5009011;28;20351;-72
2021/03/17 01:37:26;;;;;;;5.23;4.73;;;;;;;;;;5008631;28;20608;-72
2021/03/17 01:39:52;;;;;;;6.00;5.50;;;;;;;;;;4994815;28;20186;-72
2021/03/17 01:42:18;;;;;;;6.43;5.80;;;;;;;;;;5010209;28;20237;-72
2021/03/17 01:44:44;;;;;;;5.83;5.20;;;;;;;;;;5009153;28;20192;-72
2021/03/17 01:47:10;;;;;;;6.27;5.67;;;;;;;;;;5010451;28;20188;-72
2021/03/17 01:49:36;;;;;;;6.00;5.50;;;;;;;;;;5012491;28;20319;-71
2021/03/17 01:52:02;;;;;;;6.20;5.70;;;;;;;;;;5010908;28;20290;-72
2021/03/17 01:54:28;;;;;;;6.63;5.70;;;;;;;;;;5012703;28;20222;-71
2021/03/17 01:56:54;;;;;;;6.30;5.53;;;;;;;;;;5013479;28;20197;-71
2021/03/17 01:59:21;;;;;;;6.27;5.67;;;;;;;;;;5004924;28;20190;-72
2021/03/17 02:01:47;;;;;;;5.80;5.30;;;;;;;;;;5011340;28;20208;-72
2021/03/17 02:04:13;;;;;;;6.20;5.60;;;;;;;;;;4986918;28;20219;-71
2021/03/17 02:06:39;;;;;;;6.10;5.50;;;;;;;;;;5011147;28;20191;-72
2021/03/17 02:09:05;;;;;;;6.50;5.90;;;;;;;;;;5007255;28;20190;-72
2021/03/17 02:11:31;;;;;;;6.17;5.57;;;;;;;;;;5009185;28;20276;-72
2021/03/17 02:14:06;;;;;;;6.40;5.80;;;;;;;;;;4992385;28;20219;-72
2021/03/17 02:16:47;;;;;;;5.90;5.37;;;;;;;;;;4991971;28;20223;-71
2021/03/17 02:19:13;;;;;;;6.60;5.93;;;;;;;;;;5005652;28;20199;-71
2021/03/17 02:21:48;;;;;;;6.50;5.90;;;;;;;;;;4988188;28;20210;-71
2021/03/17 02:24:17;;;;;;;6.17;5.60;;;;;;;;;;5005192;28;20248;-72
2021/03/17 02:27:03;;;;;;;5.30;4.80;;;;;;;;;;5007074;28;20318;-72
2021/03/17 02:29:29;;;;;;;6.27;5.67;;;;;;;;;;4978004;28;20194;-72
2021/03/17 02:32:08;;;;;;;6.10;5.60;;;;;;;;;;5009069;28;20237;-71
2021/03/17 02:34:36;;;;;;;5.90;5.30;;;;;;;;;;5013701;28;20269;-72
2021/03/17 02:37:07;;;;;;;5.53;5.03;;;;;;;;;;4992605;28;20227;-72
2021/03/17 02:39:38;;;;;;;6.43;5.67;;;;;;;;;;5008831;28;20685;-72
2021/03/17 02:42:04;;;;;;;5.83;5.43;;;;;;;;;;5011255;28;20206;-71
2021/03/17 02:44:30;;;;;;;5.67;5.17;;;;;;;;;;5007962;28;20185;-72
2021/03/17 02:47:00;;;;;;;6.40;5.80;;;;;;;;;;5004852;28;20266;-71
2021/03/17 02:49:28;;;;;;;5.70;5.20;;;;;;;;;;4989040;28;20558;-71
2021/03/17 02:51:55;;;;;;;6.20;5.67;;;;;;;;;;4994852;28;20211;-70
2021/03/17 02:54:22;;;;;;;6.17;5.17;;;;;;;;;;5011633;28;20252;-71
2021/03/17 02:56:53;;;;;;;6.87;5.47;;;;;;;;;;5005455;28;20241;-71
2021/03/17 02:59:20;;;;;;;5.43;4.93;;;;;;;;;;5008976;28;20227;-72
2021/03/17 03:01:49;;;;;;;5.80;5.30;;;;;;;;;;5005610;28;20203;-71
2021/03/17 03:04:16;;;;;;;6.47;5.87;;;;;;;;;;5006496;28;20197;-71
2021/03/17 03:06:44;;;;;;;6.17;5.57;;;;;;;;;;5009242;28;20196;-70
2021/03/17 03:09:11;;;;;;;7.30;6.60;;;;;;;;;;5006701;28;20190;-70
2021/03/17 03:11:38;;;;;;;5.90;5.30;;;;;;;;;;5007406;28;20219;-72
2021/03/17 03:14:05;;;;;;;5.83;5.33;;;;;;;;;;5011274;28;20267;-71
2021/03/17 03:16:32;;;;;;;5.80;5.30;;;;;;;;;;5008486;28;20252;-71
2021/03/17 03:18:59;;;;;;;8.30;5.73;;;;;;;;;;5005194;28;20177;-71
2021/03/17 03:21:26;;;;;;;5.87;5.37;;;;;;;;;;5008962;28;20685;-72
2021/03/17 03:23:53;;;;;;;5.83;5.33;;;;;;;;;;4994776;28;20194;-71
2021/03/17 03:26:19;;;;;;;5.80;5.30;;;;;;;;;;5007976;28;20266;-72
2021/03/17 03:28:46;;;;;;;6.03;5.50;;;;;;;;;;5007412;28;20184;-71
2021/03/17 03:31:12;;;;;;;5.80;5.30;;;;;;;;;;5014865;28;20298;-72
2021/03/17 03:33:38;;;;;;;6.67;5.40;;;;;;;;;;5010040;28;20217;-71
2021/03/17 03:36:04;;;;;;;6.03;5.53;;;;;;;;;;5004290;28;20189;-72
2021/03/17 03:38:30;;;;;;;6.10;5.60;;;;;;;;;;4990724;28;20189;-72
2021/03/17 03:40:56;;;;;;;6.50;5.83;;;;;;;;;;5009269;28;20211;-71
2021/03/17 03:43:22;;;;;;;8.13;5.77;;;;;;;;;;5009046;28;20197;-71
2021/03/17 03:45:48;;;;;;;6.70;6.10;;;;;;;;;;5006908;28;20186;-72
2021/03/17 03:48:14;;;;;;;7.03;6.33;;;;;;;;;;5008742;28;20183;-71
2021/03/17 03:50:42;;;;;;;10.00;6.13;;;;;;;;;;5009213;28;20226;-72
2021/03/17 03:53:26;;;;;;;6.80;6.20;;;;;;;;;;5009094;28;20194;-71
2021/03/17 03:56:01;;;;;;;7.60;7.00;;;;;;;;;;4988668;28;20217;-71
2021/03/17 03:58:44;;;;;;;7.10;6.50;;;;;;;;;;5004243;28;20230;-72
2021/03/17 04:01:12;;;;;;;7.37;6.77;;;;;;;;;;5011792;28;20611;-71
2021/03/17 04:03:42;;;;;;;7.43;6.73;;;;;;;;;;5011218;28;20191;-71
2021/03/17 04:06:09;;;;;;;7.00;6.30;;;;;;;;;;5005805;28;20185;-71
2021/03/17 04:08:37;;;;;;;7.43;6.73;;;;;;;;;;5002512;28;20247;-71
2021/03/17 04:11:03;;;;;;;7.37;6.67;;;;;;;;;;5008127;28;20248;-71
2021/03/17 04:13:31;;;;;;;7.83;7.03;;;;;;;;;;5009688;28;20213;-72
2021/03/17 04:15:57;;;;;;;7.80;7.10;;;;;;;;;;5011231;28;20193;-71
2021/03/17 04:18:27;;;;;;;7.80;7.10;;;;;;;;;;5008175;28;20192;-72
2021/03/17 04:20:54;;;;;;;8.50;7.10;;;;;;;;;;5001936;28;20213;-72
2021/03/17 04:23:22;;;;;;;8.77;7.60;;;;;;;;;;4998986;28;20196;-71
2021/03/17 04:25:50;;;;;;;7.77;7.07;;;;;;;;;;5004777;28;20590;-72
2021/03/17 04:28:17;;;;;;;8.80;8.00;;;;;;;;;;5009888;28;20190;-71
2021/03/17 04:30:45;;;;;;;8.97;8.07;;;;;;;;;;5006333;28;20197;-71
2021/03/17 04:33:13;;;;;;;8.97;8.17;;;;;;;;;;5008846;28;20667;-71
2021/03/17 04:35:39;;;;;;;8.67;7.97;;;;;;;;;;5006640;28;20204;-71
2021/03/17 04:38:06;;;;;;;9.73;8.57;;;;;;;;;;5015622;28;20708;-71
2021/03/17 04:40:32;;;;;;;9.67;8.77;;;;;;;;;;5008838;28;20179;-72
2021/03/17 04:42:58;;;;;;;9.57;8.67;;;;;;;;;;5012468;28;20658;-71
2021/03/17 04:45:24;;;;;;;9.77;8.87;;;;;;;;;;4993865;28;20538;-71
2021/03/17 04:47:52;;;;;;;9.80;9.00;;;;;;;;;;5008917;28;20214;-72
2021/03/17 04:50:19;;;;;;;9.33;8.50;;;;;;;;;;5010325;28;20241;-70
2021/03/17 04:52:45;;;;;;;9.63;8.73;;;;;;;;;;5005708;28;20205;-71
2021/03/17 04:55:15;;;;;;;10.10;9.20;;;;;;;;;;5010752;28;20255;-71
2021/03/17 04:57:42;;;;;;;11.37;10.33;;;;;;;;;;4994514;28;20271;-71
2021/03/17 05:00:10;;;;;;;11.33;10.30;;;;;;;;;;5012496;28;20245;-72
2021/03/17 05:02:36;;;;;;;11.37;10.30;;;;;;;;;;4989520;28;20295;-71
2021/03/17 05:05:03;;;;;;;11.67;10.43;;;;;;;;;;5008341;28;20193;-71
2021/03/17 05:07:30;;;;;;;11.47;10.37;;;;;;;;;;5007452;28;20204;-71
2021/03/17 05:09:57;;;;;;;12.40;11.20;;;;;;;;;;5009644;28;20257;-72
2021/03/17 05:12:23;;;;;;;12.90;11.70;;;;;;;;;;5010329;28;20225;-71
2021/03/17 05:14:50;;;;;;;13.27;12.07;;;;;;;;;;5011057;28;20207;-71
2021/03/17 05:17:16;;;;;;;12.87;11.67;;;;;;;;;;5012497;28;20583;-72
2021/03/17 05:19:42;;;;;;;13.57;12.33;;;;;;;;;;4991108;28;20246;-72
2021/03/17 05:22:09;;;;;;;13.67;12.37;;;;;;;;;;5013653;28;20208;-71
2021/03/17 05:24:36;;;;;;;13.77;12.47;;;;;;;;;;5014703;28;20181;-71
2021/03/17 05:27:03;;;;;;;13.10;11.80;;;;;;;;;;5011717;28;20195;-71
2021/03/17 05:29:29;;;;;;;15.03;13.63;;;;;;;;;;5013524;28;20194;-71
2021/03/17 05:31:56;;;;;;;14.83;13.43;;;;;;;;;;4992678;28;20227;-70
2021/03/17 05:34:22;;;;;;;17.87;16.07;;;;;;;;;;5005486;28;20280;-71
2021/03/17 05:36:48;;;;;;;15.90;14.40;;;;;;;;;;5010129;28;20318;-71
2021/03/17 05:39:15;;;;;;;16.27;14.77;;;;;;;;;;5009481;28;20181;-71
2021/03/17 05:41:41;;;;;;;16.67;15.07;;;;;;;;;;5014101;28;20626;-72
2021/03/17 05:44:08;;;;;;;15.17;13.67;;;;;;;;;;5000376;28;20249;-71
2021/03/17 05:46:34;;;;;;;15.20;13.70;;;;;;;;;;5006578;28;20183;-71
2021/03/17 05:49:01;;;;;;;16.93;14.90;;;;;;;;;;4999779;28;20194;-71
2021/03/17 05:51:27;;;;;;;15.80;14.30;;;;;;;;;;5009610;28;20228;-72
2021/03/17 05:53:53;;;;;;;15.27;13.83;;;;;;;;;;5011789;28;20210;-72
2021/03/17 05:56:20;;;;;;;15.83;14.33;;;;;;;;;;5006947;28;20189;-71
2021/03/17 05:58:46;;;;;;;15.60;14.10;;;;;;;;;;4993445;28;20711;-71
2021/03/17 06:01:12;;;;;;;16.83;15.17;;;;;;;;;;5012415;28;20209;-72
2021/03/17 06:03:38;;;;;;;17.23;15.27;;;;;;;;;;5007242;28;20530;-71
2021/03/17 06:06:06;;;;;;;17.80;15.90;;;;;;;;;;5008813;28;20221;-71
2021/03/17 06:08:34;;;;;;;18.03;16.23;;;;;;;;;;4999196;28;20199;-71
2021/03/17 06:11:01;;;;;;;18.60;16.73;;;;;;;;;;5014701;28;20218;-72
2021/03/17 06:13:28;;;;;;;17.63;15.47;;;;;;;;;;5008346;28;20197;-72
2021/03/17 06:15:58;;;;;;;19.67;17.80;;;;;;;;;;5009537;28;20738;-72
2021/03/17 06:18:29;;;;;;;19.20;17.23;;;;;;;;;;5010685;28;20250;-72
2021/03/17 06:20:58;;;;;;;18.43;16.43;;;;;;;;;;5013819;28;20211;-72
2021/03/17 06:23:24;;;;;;;18.93;16.93;;;;;;;;;;5009566;28;20288;-73
2021/03/17 06:25:51;;;;;;;19.30;17.40;;;;;;;;;;5004403;28;20283;-72
2021/03/17 06:28:17;;;;;;;18.53;16.73;;;;;;;;;;4989350;28;20184;-73
2021/03/17 06:30:44;;;;;;;20.57;18.50;;;;;;;;;;5010789;28;20605;-73
2021/03/17 06:33:11;;;;;;;19.80;17.63;;;;;;;;;;4989274;28;20267;-72
2021/03/17 06:35:37;;;;;;;19.27;17.37;;;;;;;;;;5009739;28;20256;-73
2021/03/17 06:38:04;;;;;;;18.93;17.10;;;;;;;;;;5006186;28;20737;-72
2021/03/17 06:40:31;;;;;;;18.13;16.23;;;;;;;;;;5011241;28;20194;-71
2021/03/17 06:43:07;;;;;;;18.47;16.57;;;;;;;;;;5010263;28;20255;-72
2021/03/17 06:45:35;;;;;;;19.53;17.27;;;;;;;;;;4992213;28;20209;-74
2021/03/17 06:48:19;;;;;;;19.50;17.53;;;;;;;;;;5007780;28;20190;-73
2021/03/17 06:50:45;;;;;;;18.23;16.43;;;;;;;;;;5017669;28;20278;-72
2021/03/17 06:53:11;;;;;;;17.73;16.03;;;;;;;;;;5011992;28;20202;-71
2021/03/17 06:55:37;;;;;;;16.73;14.90;;;;;;;;;;5008222;28;20212;-74
2021/03/17 06:58:03;;;;;;;17.07;15.37;;;;;;;;;;5015233;28;20226;-73
2021/03/17 07:00:33;;;;;;;17.73;15.90;;;;;;;;;;5005585;28;20196;-71
2021/03/17 07:02:59;;;;;;;16.30;14.60;;;;;;;;;;5014538;28;20187;-73
2021/03/17 07:05:36;;;;;;;16.57;14.87;;;;;;;;;;5011259;28;20191;-73
2021/03/17 07:08:03;;;;;;;17.20;15.40;;;;;;;;;;5011847;28;20704;-72
2021/03/17 07:10:31;;;;;;;19.73;17.73;;;;;;;;;;5015211;28;20202;-72
2021/03/17 07:12:57;;;;;;;18.77;16.80;;;;;;;;;;4992795;28;20201;-71
2021/03/17 07:15:24;;;;;;;19.93;17.80;;;;;;;;;;4996961;28;20745;-73
2021/03/17 07:17:50;;;;;;;19.80;17.70;;;;;;;;;;5009257;28;20184;-71
2021/03/17 07:20:34;;;;;;;20.20;18.10;;;;;;;;;;5007434;28;20180;-71
2021/03/17 07:23:19;;;;;;;23.97;21.50;;;;;;;;;;5003931;28;20272;-71
2021/03/17 07:26:02;;;;;;;21.27;19.03;;;;;;;;;;5001263;28;20185;-73
2021/03/17 07:28:28;;;;;;;22.63;20.27;;;;;;;;;;4992069;28;20346;-71
2021/03/17 07:30:54;;;;;;;22.20;20.00;;;;;;;;;;5009704;28;20208;-71
2021/03/17 07:33:23;;;;;;;20.73;18.53;;;;;;;;;;5009201;28;20183;-71
2021/03/17 07:35:49;;;;;;;21.43;18.63;;;;;;;;;;4991184;28;20863;-72
2021/03/17 07:38:15;;;;;;;20.77;18.27;;;;;;;;;;5006041;28;20259;-71
2021/03/17 07:40:46;;;;;;;20.73;18.10;;;;;;;;;;5005414;28;20292;-71
2021/03/17 07:43:13;;;;;;;20.83;18.53;;;;;;;;;;5000675;28;20204;-72
2021/03/17 07:45:39;;;;;;;19.40;17.00;;;;;;;;;;4999338;28;20192;-72
2021/03/17 07:48:10;;;;;;;21.03;18.93;;;;;;;;;;4980195;28;20188;-72
2021/03/17 07:50:37;;;;;;;19.33;17.27;;;;;;;;;;5008263;28;20181;-72
2021/03/17 07:53:07;;;;;;;18.80;16.90;;;;;;;;;;5013000;28;20261;-72
2021/03/17 07:55:38;;;;;;;18.13;15.90;;;;;;;;;;5008219;28;20227;-74
2021/03/17 07:58:05;;;;;;;18.77;16.73;;;;;;;;;;5008510;28;20663;-72
2021/03/17 08:00:32;;;;;;;23.90;19.90;;;;;;;;;;4993887;28;20707;-72
2021/03/17 08:02:58;;;;;;;22.00;19.67;;;;;;;;;;5005809;28;20179;-72
2021/03/17 08:05:24;;;;;;;19.90;17.77;;;;;;;;;;5009803;28;20189;-72
2021/03/17 08:07:50;;;;;;;20.00;17.37;;;;;;;;;;5008345;28;20718;-72
2021/03/17 08:10:16;;;;;;;18.00;16.10;;;;;;;;;;5003692;28;20672;-71
2021/03/17 08:12:43;;;;;;;22.87;16.50;;;;;;;;;;5017247;28;20204;-72
2021/03/17 08:15:12;;;;;;;18.50;15.00;;;;;;;;;;4991389;28;20209;-72
2021/03/17 08:17:38;;;;;;;14.97;13.57;;;;;;;;;;5013224;28;20188;-72
2021/03/17 08:20:14;;;;;;;16.13;14.43;;;;;;;;;;4992163;28;20188;-73
2021/03/17 08:22:41;;;;;;;15.33;13.80;;;;;;;;;;5007681;28;20205;-72
2021/03/17 08:25:08;;;;;;;15.07;13.50;;;;;;;;;;4996281;28;20550;-72
2021/03/17 08:27:34;;;;;;;17.33;14.97;;;;;;;;;;5007548;28;20190;-73
2021/03/17 08:30:08;;;;;;;15.80;12.47;;;;;;;;;;5014350;28;20192;-74
2021/03/17 08:32:52;;;;;;;12.67;11.47;;;;;;;;;;5011064;28;20233;-72
2021/03/17 08:35:18;;;;;;;12.10;10.30;;;;;;;;;;5010354;28;20256;-74
2021/03/17 08:37:47;;;;;;;11.60;9.87;;;;;;;;;;5011924;28;20264;-73
2021/03/17 08:40:29;;;;;;;10.80;9.73;;;;;;;;;;4991513;28;20190;-72
2021/03/17 08:42:55;;;;;;;10.27;9.27;;;;;;;;;;5011936;28;20284;-71
2021/03/17 08:45:22;;;;;;;8.83;8.03;;;;;;;;;;4985845;28;20351;-72
2021/03/17 08:47:48;;;;;;;7.63;6.93;;;;;;;;;;5012062;28;20177;-72
2021/03/17 08:50:17;;;;;;;7.50;6.77;;;;;;;;;;5011933;28;20211;-71
2021/03/17 08:52:46;;;;;;;7.73;6.47;;;;;;;;;;5010297;28;20209;-72
2021/03/17 08:55:30;;;;;;;7.13;6.53;;;;;;;;;;5011272;28;20228;-72
2021/03/17 08:58:03;;;;;;;7.77;6.97;;;;;;;;;;5014310;28;20184;-72
2021/03/17 09:00:45;;;;;;;7.28;6.55;;;;;;;;;;4991904;28;20245;-73
2021/03/17 09:03:30;;;;;;;8.37;6.73;;;;;;;;;;5009415;28;20188;-73
2021/03/17 09:06:08;;;;;;;6.75;6.05;;;;;;;;;;5010065;28;20245;-71
2021/03/17 09:08:46;;;;;;;6.10;5.50;;;;;;;;;;5007016;28;20246;-74
2021/03/17 09:11:32;;;;;;;15.88;14.48;;;21.50;58.80;;;;;;5010258;28;20220;-72
2021/03/17 09:14:00;;;;;;;9.10;6.00;;;17.50;70.70;;;;;;5002874;28;20208;-72
2021/03/17 09:16:27;;;;;;;5.13;4.63;;;19.30;57.20;;;;;;5007543;28;20176;-72
2021/03/17 09:19:06;;;;;;;5.85;4.80;;;;;;;;;;5011281;28;20620;-73
2021/03/17 09:21:33;;;;;;;5.68;4.60;;;20.60;52.20;;;;;;5010562;28;20722;-72
2021/03/17 09:23:59;;;;;;;4.72;4.22;;;22.50;46.00;;;;;;5011260;28;20418;-72
2021/03/17 09:26:29;;;;;;;4.80;4.40;;;23.20;42.00;;;;;;5010746;28;20264;-72
2021/03/17 09:28:55;;;;;;;6.68;4.45;;;;;;;;;;5013929;28;20713;-73
2021/03/17 09:31:22;;;;;;;4.45;4.10;;;22.80;41.60;;;;;;5012665;28;20585;-73
2021/03/17 09:33:49;;;;;;;6.30;4.53;;;21.70;45.20;;;;;;5012034;28;20675;-72
2021/03/17 09:36:19;;;;;;;5.00;3.90;;;23.20;43.10;;;;;;5010110;28;20195;-73
2021/03/17 09:38:49;;;;;;;3.38;3.08;;;25.00;42.50;;;;;;5015779;28;20673;-71
2021/03/17 09:41:20;;;;;;;3.97;3.20;;;26.30;34.40;;;;;;5010337;28;20213;-72
2021/03/17 09:43:53;;;;;;;3.72;3.30;;;26.70;32.90;;;;;;5012843;28;20846;-71
2021/03/17 09:46:24;;;;;;;3.13;2.83;;;;;;;;;;5007998;28;20212;-71
2021/03/17 09:48:52;;;;;;;4.05;2.97;;;;;;;;;;5006510;28;20558;-72
2021/03/17 09:51:19;;;;;;;3.67;3.35;;;;;;;;;;5013459;28;20224;-72
2021/03/17 09:53:46;;;;;;;3.30;2.72;;;26.90;34.80;;;;;;5008954;28;20272;-71
2021/03/17 09:56:12;;;;;;;4.15;2.90;;;;;;;;;;4995353;28;20247;-71
2021/03/17 09:58:39;;;;;;;3.35;3.00;;;;;;;;;;5008620;28;20177;-70
2021/03/17 10:01:12;;;;;;;3.65;2.72;;;;;;;;;;5010432;28;20284;-72
2021/03/17 10:03:45;;;;;;;3.53;2.85;;;;;;;;;;5011363;28;20243;-72
2021/03/17 10:06:11;;;;;;;3.42;3.13;;;;;;;;;;5008370;28;20181;-74
2021/03/17 10:08:37;;;;;;;4.05;3.55;;;;;;;;;;5010495;28;20177;-72
2021/03/17 10:11:03;;;;;;;3.72;3.42;;;;;;;;;;5012654;28;20223;-72
2021/03/17 10:13:36;;;;;;;4.20;3.80;;;;;;;;;;4993384;28;20781;-71
2021/03/17 10:16:02;;;;;;;8.02;7.38;;;;;;;;;;5006790;28;20192;-72
2021/03/17 10:18:29;;;;;;;19.33;17.52;;;;;;;;;;5011137;28;20181;-74
2021/03/17 10:20:56;;;;;;;7.38;6.70;;;;;;;;;;5011307;28;20702;-73
2021/03/17 10:23:22;;;;;;;4.68;4.25;;;;;;;;;;5012090;28;20214;-74
2021/03/17 10:25:48;;;;;;;5.80;3.38;;;;;;;;;;5009351;28;20185;-75
2021/03/17 10:28:15;;;;;;;5.25;2.75;;;;;;;;;;5008440;28;20192;-73
2021/03/17 10:30:46;;;;;;;3.53;3.22;;;;;;;;;;4988915;28;20770;-72
2021/03/17 10:33:13;;;;;;;5.25;3.13;;;;;;;;;;5004955;28;20220;-72
2021/03/17 10:35:40;;;;;;;3.15;2.90;;;;;;;;;;5007919;28;20240;-72
2021/03/17 10:38:07;;;;;;;3.65;2.45;;;;;;;;;;5013985;28;20259;-74
2021/03/17 10:40:33;;;;;;;3.70;3.40;;;;;;;;;;5009151;28;20223;-73
2021/03/17 10:43:06;;;;;;;4.88;3.60;;;;;;;;;;5006730;28;20633;-73
2021/03/17 10:45:32;;;;;;;5.32;3.70;;;;;;;;;;5004346;28;20181;-72
2021/03/17 10:47:58;;;;;;;4.35;3.83;;;;;;;;;;5006176;28;20196;-72
2021/03/17 10:50:34;;;;;;;5.55;4.03;;;;;;;;;;5012014;28;20687;-72
2021/03/17 10:53:01;;;;;;;7.93;4.25;;;;;;;;;;5011842;28;20189;-73
2021/03/17 10:55:28;;;;;;;4.18;3.58;;;;;;;;;;5010675;28;20209;-75
2021/03/17 10:58:07;;;;;;;4.78;3.70;;;;;;;;;;5003531;28;20177;-72
2021/03/17 11:00:33;;;;;;;7.97;4.80;;;;;;;;;;5008901;28;20176;-74
2021/03/17 11:02:59;;;;;;;6.97;4.25;;;;;;;;;;5004155;28;20188;-73
2021/03/17 11:05:31;;;;;;;3.92;3.55;;;;;;;;;;5007384;28;20177;-74
2021/03/17 11:08:06;;;;;;;7.35;4.75;;;;;;;;;;4999687;28;20209;-72
2021/03/17 11:10:32;;;;;;;5.78;4.05;;;;;;;;;;4998046;28;20270;-74
2021/03/17 11:13:00;;;;;;;6.18;4.00;;;;;;;;;;5009235;28;20185;-74
2021/03/17 11:15:30;;;;;;;4.72;4.32;;;;;;;;;;5009965;28;20219;-71
2021/03/17 11:17:57;;;;;;;7.90;4.72;;;;;;;;;;5007022;28;20185;-73
2021/03/17 11:20:24;;;;;;;5.70;4.57;;;;;;;;;;5005804;28;20182;-72
2021/03/17 11:22:50;;;;;;;5.47;4.90;;;;;;;;;;5005812;28;20212;-72
2021/03/17 11:25:22;;;;;;;5.65;5.05;;;;;;;;;;5014113;28;20195;-72
2021/03/17 11:27:48;;;;;;;7.85;5.60;;;;;;;;;;5008309;28;20185;-72
2021/03/17 11:30:14;;;;;;;5.97;5.25;;;;;;;;;;5004130;28;20200;-73
2021/03/17 11:32:40;;;;;;;5.83;5.20;;;;;;;;;;5008896;28;20224;-73
2021/03/17 11:35:07;;;;;;;6.00;5.40;;;;;;;;;;5009570;28;20294;-72
2021/03/17 11:37:33;;;;;;;6.37;5.10;;;;;;;;;;5009919;28;20666;-72
2021/03/17 11:39:59;;;;;;;5.73;5.20;;;;;;;;;;4985132;28;20217;-72
2021/03/17 11:42:25;;;;;;;6.07;5.47;;;;;;;;;;5009835;28;20578;-70
2021/03/17 11:44:51;;;;;;;6.00;5.17;;;;;;;;;;4991726;28;20184;-71
2021/03/17 11:47:17;;;;;;;6.07;5.53;;;;;;;;;;5000718;28;20203;-73
2021/03/17 11:49:43;;;;;;;6.97;5.90;;;;;;;;;;5011394;28;20201;-71
2021/03/17 11:52:09;;;;;;;8.03;7.10;;;;;;;;;;5014926;28;20583;-71
2021/03/17 11:54:36;;;;;;;7.20;6.50;;;;;;;;;;5009394;28;20626;-72
2021/03/17 11:57:03;;;;;;;8.13;7.33;;;;;;;;;;4997898;28;20328;-71
2021/03/17 11:59:29;;;;;;;10.63;8.13;;;;;;;;;;4990657;28;20209;-72
2021/03/17 12:01:55;;;;;;;8.90;7.53;;;;;;;;;;5011908;28;20246;-71
2021/03/17 12:04:21;;;;;;;10.13;8.70;;;;;;;;;;5014295;28;20652;-71
2021/03/17 12:06:47;;;;;;;13.90;10.37;;;;;;;;;;5010516;28;20199;-71
2021/03/17 12:09:13;;;;;;;8.57;7.50;;;;;;;;;;5005973;28;20193;-71
2021/03/17 12:11:40;;;;;;;14.67;11.23;;;;;;;;;;5012139;28;20275;-71
2021/03/17 12:14:06;;;;;;;8.47;7.60;;;;;;;;;;5003222;28;20211;-71
2021/03/17 12:16:32;;;;;;;9.43;8.47;;;;;;;;;;5011246;28;20243;-71
2021/03/17 12:18:58;;;;;;;10.83;8.23;;;;;;;;;;5002718;28;20204;-71
2021/03/17 12:21:24;;;;;;;10.23;8.30;;;;;;;;;;5007920;28;20208;-71
2021/03/17 12:23:51;;;;;;;10.10;6.90;;;;;;;;;;5009320;28;20542;-71
2021/03/17 12:26:17;;;;;;;6.87;6.17;;;;;;;;;;5002004;28;20181;-71
2021/03/17 12:28:43;;;;;;;6.87;6.17;;;;;;;;;;5012581;28;20192;-71
2021/03/17 12:31:09;;;;;;;6.97;6.27;;;;;;;;;;4997519;28;20366;-71
2021/03/17 12:33:35;;;;;;;7.90;7.10;;;;;;;;;;5007098;28;20889;-70
2021/03/17 12:36:02;;;;;;;8.40;7.23;;;;;;;;;;5012547;28;20181;-71
2021/03/17 12:38:28;;;;;;;7.53;6.80;;;;;;;;;;5007565;28;20194;-71
2021/03/17 12:40:54;;;;;;;8.60;7.80;;;;;;;;;;5012056;28;20241;-72
2021/03/17 12:43:20;;;;;;;8.20;7.40;;;;;;;;;;4992455;28;20211;-72
2021/03/17 12:45:46;;;;;;;7.50;6.80;;;;;;;;;;5011019;28;20189;-71
2021/03/17 12:48:13;;;;;;;8.03;7.23;;;;;;;;;;5009481;28;20301;-71
2021/03/17 12:50:40;;;;;;;8.00;7.20;;;;;;;;;;5008811;28;20199;-71
2021/03/17 12:53:06;;;;;;;8.27;7.13;;;;;;;;;;5011139;28;20589;-72
2021/03/17 12:55:32;;;;;;;7.83;7.13;;;;;;;;;;5013840;28;20209;-72
2021/03/17 12:57:58;;;;;;;8.47;6.80;;;;;;;;;;4991797;28;20189;-71
2021/03/17 13:00:28;;;;;;;8.47;7.67;;;;;;;;;;4999520;28;20672;-72
2021/03/17 13:02:54;;;;;;;8.57;7.37;;;;;;;;;;5006784;28;20205;-72
2021/03/17 13:05:21;;;;;;;8.67;7.87;;;;;;;;;;5016571;28;20187;-71
2021/03/17 13:07:47;;;;;;;8.90;8.10;;;;;;;;;;5012289;28;20687;-72
2021/03/17 13:10:17;;;;;;;9.33;8.43;;;;;;;;;;5007261;28;20578;-72
2021/03/17 13:12:44;;;;;;;7.53;6.37;;;;;;;;;;5011713;28;20266;-72
2021/03/17 13:15:10;;;;;;;8.23;7.47;;;;;;;;;;5010744;28;20279;-72
2021/03/17 13:17:37;;;;;;;8.23;7.43;;;;;;;;;;5007409;28;20552;-71
2021/03/17 13:20:04;;;;;;;8.13;7.33;;;;;;;;;;5009793;28;20707;-72
2021/03/17 13:22:30;;;;;;;9.20;8.30;;;;;;;;;;5009612;28;20271;-71
2021/03/17 13:24:56;;;;;;;8.40;7.70;;;;;;;;;;5012100;28;20264;-71
2021/03/17 13:27:22;;;;;;;8.80;7.90;;;;;;;;;;5005254;28;20199;-72
2021/03/17 13:29:48;;;;;;;10.80;9.70;;;;;;;;;;5001536;28;20269;-71
2021/03/17 13:32:14;;;;;;;9.90;8.90;;;;;;;;;;5004933;28;20773;-73
2021/03/17 13:34:40;;;;;;;10.70;8.97;;;;;;;;;;5014264;28;20225;-71
2021/03/17 13:37:07;;;;;;;16.33;14.37;;;;;;;;;;4992340;28;20192;-71
2021/03/17 13:39:33;;;;;;;18.40;13.60;;;;;;;;;;5001670;28;21068;-71
2021/03/17 13:41:59;;;;;;;14.23;11.70;;;;;;;;;;5009603;28;20202;-70
2021/03/17 13:44:25;;;;;;;16.73;15.03;;;;;;;;;;5008904;28;20246;-71
2021/03/17 13:46:51;;;;;;;16.97;15.27;;;;;;;;;;4990026;28;20655;-71
2021/03/17 13:49:17;;;;;;;10.43;9.50;;;;;;;;;;5004861;28;20199;-71
2021/03/17 13:51:43;;;;;;;9.13;8.23;;;;;;;;;;5002933;28;20303;-72
2021/03/17 13:54:09;;;;;;;8.40;7.37;;;;;;;;;;5005767;28;20214;-72
2021/03/17 13:56:35;;;;;;;10.60;9.63;;;;;;;;;;4989658;28;20234;-72
2021/03/17 13:59:01;;;;;;;8.73;7.90;;;;;;;;;;4983726;28;20177;-72
2021/03/17 14:01:27;;;;;;;7.10;6.37;;;;;;;;;;5010665;28;20684;-72
2021/03/17 14:03:55;;;;;;;8.00;7.30;;;;;;;;;;5006301;28;20242;-72
2021/03/17 14:06:21;;;;;;;7.40;6.70;;;;;;;;;;5002678;28;20746;-71
2021/03/17 14:08:47;;;;;;;7.03;6.43;;;;;;;;;;5010178;28;20272;-72
2021/03/17 14:11:13;;;;;;;7.33;6.70;;;;;;;;;;5010557;28;20309;-72
2021/03/17 14:13:39;;;;;;;7.93;7.13;;;;;;;;;;5008969;28;20192;-74
2021/03/17 14:16:05;;;;;;;6.80;6.13;;;;;;;;;;5011545;28;20183;-70
2021/03/17 14:18:31;;;;;;;5.55;5.05;;;;;;;;;;5012081;28;20185;-74
2021/03/17 14:20:57;;;;;;;5.55;5.05;;;;;;;;;;5012418;28;20228;-73
2021/03/17 14:23:23;;;;;;;5.38;4.90;;;;;;;;;;5006674;28;20235;-72
2021/03/17 14:25:49;;;;;;;5.82;5.32;;;;;;;;;;5005671;28;20186;-72
2021/03/17 14:28:15;;;;;;;6.05;5.50;;;;;;;;;;5010674;28;20188;-72
2021/03/17 14:30:41;;;;;;;7.15;6.32;;;;;;;;;;5015135;28;20263;-73
2021/03/17 14:33:07;;;;;;;6.15;5.57;;;;;;;;;;5009618;28;20634;-72
2021/03/17 14:35:33;;;;;;;7.35;6.75;;;;;;;;;;4989700;28;20200;-73